createdAt,value
2017-08-09T00:01:56.870Z,96.00
2017-08-09T00:04:25.132Z,96.10
2017-08-09T00:06:53.386Z,96.10
2017-08-09T00:09:21.750Z,96.10
2017-08-09T00:11:50.017Z,96.20
2017-08-09T00:14:18.275Z,96.10
2017-08-09T00:16:46.738Z,96.10
2017-08-09T00:19:14.973Z,96.10
2017-08-09T00:21:42.538Z,96.10
2017-08-09T00:24:10.103Z,96.10
2017-08-09T00:26:37.570Z,96.00
2017-08-09T00:29:05.149Z,95.90
2017-08-09T00:31:33.507Z,95.70
2017-08-09T00:34:01.764Z,95.80
2017-08-09T00:36:30.006Z,95.60
2017-08-09T00:38:57.566Z,95.50
2017-08-09T00:41:25.835Z,95.60
2017-08-09T00:43:54.090Z,95.60
2017-08-09T00:46:22.553Z,95.70
2017-08-09T00:48:50.818Z,95.60
2017-08-09T00:51:19.077Z,95.40
2017-08-09T00:53:47.440Z,95.30
2017-08-09T00:56:15.698Z,95.40
2017-08-09T00:58:44.057Z,95.50
2017-08-09T01:01:12.422Z,95.00
2017-08-09T01:03:40.686Z,95.10
2017-08-09T01:06:08.910Z,95.30
2017-08-09T01:08:36.384Z,95.30
2017-08-09T01:11:04.722Z,95.00
2017-08-09T01:13:32.396Z,95.00
2017-08-09T01:16:00.662Z,95.10
2017-08-09T01:18:28.152Z,95.10
2017-08-09T01:20:55.844Z,95.10
2017-08-09T01:23:24.148Z,94.90
2017-08-09T01:25:52.382Z,94.90
2017-08-09T01:28:19.867Z,94.90
2017-08-09T01:30:47.401Z,94.90
2017-08-09T01:33:15.654Z,94.60
2017-08-09T01:35:43.910Z,94.60
2017-08-09T01:38:12.184Z,94.40
2017-08-09T01:40:40.424Z,94.30
2017-08-09T01:43:08.187Z,94.30
2017-08-09T01:45:36.417Z,94.50
2017-08-09T01:48:03.887Z,94.50
2017-08-09T01:50:32.150Z,94.60
2017-08-09T01:53:00.406Z,94.70
2017-08-09T01:55:28.638Z,94.80
2017-08-09T01:57:56.129Z,94.70
2017-08-09T02:00:23.649Z,94.70
2017-08-09T02:02:51.913Z,94.70
2017-08-09T02:05:20.278Z,94.50
2017-08-09T02:07:48.509Z,94.70
2017-08-09T02:10:16.079Z,94.60
2017-08-09T02:12:44.542Z,94.60
2017-08-09T02:15:12.803Z,94.40
2017-08-09T02:17:41.085Z,94.40
2017-08-09T02:20:08.606Z,94.40
2017-08-09T02:22:36.878Z,94.30
2017-08-09T02:25:04.350Z,94.30
2017-08-09T02:27:32.069Z,94.10
2017-08-09T02:29:59.570Z,94.30
2017-08-09T02:32:27.807Z,94.10
2017-08-09T02:34:55.295Z,94.10
2017-08-09T02:37:22.792Z,93.90
2017-08-09T02:39:50.263Z,94.30
2017-08-09T02:42:18.530Z,94.00
2017-08-09T02:44:46.065Z,94.00
2017-08-09T02:47:14.440Z,94.30
2017-08-09T02:49:41.929Z,94.20
2017-08-09T02:52:09.411Z,94.20
2017-08-09T02:54:37.646Z,94.60
2017-08-09T02:57:05.211Z,94.60
2017-08-09T02:59:33.475Z,94.50
2017-08-09T03:02:01.710Z,94.40
2017-08-09T03:04:29.273Z,94.40
2017-08-09T03:06:57.509Z,94.80
2017-08-09T03:09:24.992Z,94.80
2017-08-09T03:11:52.522Z,95.20
2017-08-09T03:14:20.807Z,95.70
2017-08-09T03:16:48.325Z,95.30
2017-08-09T03:19:16.631Z,95.60
2017-08-09T03:21:44.158Z,95.60
2017-08-09T03:24:11.662Z,95.80
2017-08-09T03:26:39.213Z,96.00
2017-08-09T03:29:06.730Z,96.30
2017-08-09T03:31:35.194Z,96.80
2017-08-09T03:34:03.454Z,97.00
2017-08-09T03:36:31.715Z,96.90
2017-08-09T03:39:00.178Z,97.10
2017-08-09T03:41:28.443Z,97.20
2017-08-09T03:43:56.702Z,97.30
2017-08-09T03:46:25.167Z,97.30
2017-08-09T03:48:53.397Z,97.50
2017-08-09T03:51:20.966Z,97.50
2017-08-09T03:53:49.240Z,97.70
2017-08-09T03:56:16.779Z,97.70
2017-08-09T03:58:44.423Z,97.70
2017-08-09T04:01:12.673Z,97.80
2017-08-09T04:03:40.910Z,97.70
2017-08-09T04:06:08.381Z,97.70
2017-08-09T04:08:36.657Z,97.40
2017-08-09T04:11:04.182Z,97.40
2017-08-09T04:13:32.446Z,97.30
2017-08-09T04:16:00.702Z,97.40
2017-08-09T04:18:29.166Z,97.20
2017-08-09T04:20:57.429Z,97.20
2017-08-09T04:23:25.690Z,97.20
2017-08-09T04:25:53.955Z,97.10
2017-08-09T04:28:21.429Z,97.10
2017-08-09T04:30:49.666Z,97.20
2017-08-09T04:33:17.157Z,97.20
2017-08-09T04:35:44.625Z,97.20
2017-08-09T04:38:12.098Z,97.30
2017-08-09T04:40:39.800Z,97.40
2017-08-09T04:43:07.306Z,97.50
2017-08-09T04:45:35.544Z,97.50
2017-08-09T04:48:03.059Z,97.50
2017-08-09T04:50:30.555Z,97.50
2017-08-09T04:52:58.098Z,97.50
2017-08-09T04:55:26.559Z,97.60
2017-08-09T04:57:54.823Z,97.70
2017-08-09T05:00:23.079Z,97.40
2017-08-09T05:02:51.346Z,97.40
2017-08-09T05:05:18.885Z,97.40
2017-08-09T05:07:47.122Z,97.20
2017-08-09T05:10:14.606Z,97.20
2017-08-09T05:12:42.137Z,97.20
2017-08-09T05:15:09.675Z,97.00
2017-08-09T05:17:38.039Z,97.20
2017-08-09T05:20:06.274Z,97.30
2017-08-09T05:22:33.747Z,97.30
2017-08-09T05:25:01.247Z,97.50
2017-08-09T05:27:28.730Z,98.40
2017-08-09T05:29:56.308Z,98.80
2017-08-09T05:32:24.682Z,99.50
2017-08-09T05:34:52.150Z,99.50
2017-08-09T05:37:19.641Z,99.50
2017-08-09T05:39:48.119Z,99.90
2017-08-09T05:42:16.381Z,99.90
2017-08-09T05:44:44.639Z,99.90
2017-08-09T05:47:12.906Z,99.90
2017-08-09T05:49:41.180Z,99.90
2017-08-09T05:52:08.662Z,99.90
2017-08-09T05:54:36.161Z,99.90
2017-08-09T05:57:03.635Z,99.90
2017-08-09T05:59:31.106Z,99.90
2017-08-09T06:01:58.594Z,99.90
2017-08-09T06:04:26.057Z,99.90
2017-08-09T06:06:54.478Z,99.90
2017-08-09T06:09:22.937Z,99.90
2017-08-09T06:11:51.174Z,99.90
2017-08-09T06:14:18.643Z,99.90
2017-08-09T06:16:47.006Z,99.90
2017-08-09T06:19:15.289Z,99.90
2017-08-09T06:21:42.810Z,99.90
2017-08-09T06:24:11.274Z,99.90
2017-08-09T06:26:39.541Z,99.90
2017-08-09T06:29:09.566Z,99.90
2017-08-09T06:31:37.390Z,99.90
2017-08-09T06:34:05.644Z,99.90
2017-08-09T06:36:34.114Z,99.90
2017-08-09T06:39:01.620Z,99.90
2017-08-09T06:41:29.874Z,99.90
2017-08-09T06:43:58.134Z,99.90
2017-08-09T06:46:26.598Z,99.90
2017-08-09T06:48:54.858Z,99.90
2017-08-09T06:51:23.095Z,99.90
2017-08-09T06:53:50.569Z,99.90
2017-08-09T06:56:18.039Z,99.90
2017-08-09T06:58:45.753Z,99.80
2017-08-09T07:01:14.015Z,99.70
2017-08-09T07:03:41.500Z,99.70
2017-08-09T07:06:09.094Z,99.40
2017-08-09T07:08:36.570Z,99.10
2017-08-09T07:11:04.081Z,99.00
2017-08-09T07:13:32.645Z,99.00
2017-08-09T07:16:00.169Z,98.90
2017-08-09T07:18:27.734Z,99.00
2017-08-09T07:20:56.019Z,97.80
2017-08-09T07:23:23.541Z,97.80
2017-08-09T07:25:51.798Z,97.50
2017-08-09T07:28:20.162Z,97.60
2017-08-09T07:30:48.435Z,97.00
2017-08-09T07:33:15.969Z,96.90
2017-08-09T07:35:44.229Z,97.00
2017-08-09T07:38:12.465Z,97.10
2017-08-09T07:40:39.935Z,97.00
2017-08-09T07:43:08.343Z,96.40
2017-08-09T07:45:35.806Z,96.40
2017-08-09T07:48:03.374Z,97.10
2017-08-09T07:50:31.788Z,95.40
2017-08-09T07:52:59.260Z,95.40
2017-08-09T07:55:26.826Z,94.60
2017-08-09T07:57:55.094Z,95.00
2017-08-09T08:00:23.326Z,94.60
2017-08-09T08:02:50.802Z,94.70
2017-08-09T08:05:18.286Z,94.70
2017-08-09T08:07:45.773Z,92.90
2017-08-09T08:10:14.058Z,92.00
2017-08-09T08:12:41.781Z,92.00
2017-08-09T08:15:10.021Z,92.10
2017-08-09T08:17:37.587Z,92.10
2017-08-09T08:20:05.851Z,92.20
2017-08-09T08:22:33.409Z,92.20
2017-08-09T08:25:01.670Z,91.70
2017-08-09T08:27:30.030Z,91.70
2017-08-09T08:29:58.264Z,90.20
2017-08-09T08:32:25.834Z,90.20
2017-08-09T08:34:54.082Z,88.50
2017-08-09T08:37:21.554Z,88.50
2017-08-09T08:39:49.026Z,90.30
2017-08-09T08:42:16.831Z,90.00
2017-08-09T08:44:45.178Z,84.40
2017-08-09T08:47:12.641Z,84.40
2017-08-09T08:49:40.294Z,84.60
2017-08-09T08:52:07.822Z,83.70
2017-08-09T08:54:36.092Z,84.00
2017-08-09T08:57:03.831Z,84.00
2017-08-09T08:59:32.091Z,82.00
2017-08-09T09:02:00.322Z,80.00
2017-08-09T09:04:27.958Z,79.90
2017-08-09T09:06:55.422Z,80.40
2017-08-09T09:09:23.085Z,78.70
2017-08-09T09:11:51.898Z,78.90
2017-08-09T09:14:19.361Z,78.80
2017-08-09T09:16:46.841Z,79.30
2017-08-09T09:19:16.025Z,80.70
2017-08-09T09:21:43.488Z,80.70
2017-08-09T09:24:10.994Z,81.40
2017-08-09T09:26:39.263Z,80.80
2017-08-09T09:29:07.618Z,78.90
2017-08-09T09:31:35.874Z,79.00
2017-08-09T09:34:04.114Z,78.90
2017-08-09T09:36:31.674Z,78.90
2017-08-09T09:38:59.941Z,76.60
2017-08-09T09:41:28.202Z,77.40
2017-08-09T09:43:56.464Z,78.30
2017-08-09T09:46:24.764Z,77.50
2017-08-09T09:48:52.222Z,77.50
2017-08-09T09:51:19.712Z,76.40
2017-08-09T09:53:48.166Z,75.00
2017-08-09T09:56:15.714Z,75.00
2017-08-09T09:58:43.942Z,74.40
2017-08-09T10:01:13.153Z,75.60
2017-08-09T10:03:41.381Z,72.10
2017-08-09T10:06:08.863Z,72.10
2017-08-09T10:08:37.222Z,72.00
2017-08-09T10:11:05.451Z,70.40
2017-08-09T10:13:32.906Z,70.40
2017-08-09T10:16:01.918Z,71.50
2017-08-09T10:18:29.441Z,71.50
2017-08-09T10:20:56.903Z,70.20
2017-08-09T10:23:24.485Z,65.40
2017-08-09T10:25:52.031Z,67.10
2017-08-09T10:28:19.570Z,65.60
2017-08-09T10:30:47.821Z,64.50
2017-08-09T10:33:16.084Z,62.60
2017-08-09T10:35:44.451Z,63.30
2017-08-09T10:38:12.702Z,60.10
2017-08-09T10:40:40.921Z,59.90
2017-08-09T10:43:08.406Z,59.60
2017-08-09T10:45:36.674Z,59.30
2017-08-09T10:48:04.926Z,59.10
2017-08-09T10:50:33.182Z,60.20
2017-08-09T10:53:01.450Z,61.30
2017-08-09T10:55:29.678Z,62.50
2017-08-09T10:57:57.155Z,62.40
2017-08-09T11:00:25.423Z,58.60
2017-08-09T11:02:52.882Z,58.60
2017-08-09T11:05:20.406Z,57.80
2017-08-09T11:07:47.980Z,57.60
2017-08-09T11:10:15.490Z,59.00
2017-08-09T11:12:42.994Z,57.00
2017-08-09T11:15:10.461Z,57.00
2017-08-09T11:17:38.839Z,57.10
2017-08-09T11:20:07.077Z,56.20
2017-08-09T11:22:34.585Z,56.20
2017-08-09T11:25:02.837Z,55.70
2017-08-09T11:27:31.106Z,55.70
2017-08-09T11:29:59.358Z,55.50
2017-08-09T11:32:27.615Z,55.80
2017-08-09T11:34:55.984Z,56.60
2017-08-09T11:37:24.215Z,57.00
2017-08-09T11:39:51.690Z,57.00
2017-08-09T11:42:19.188Z,57.50
2017-08-09T11:44:46.662Z,54.70
2017-08-09T11:47:14.895Z,53.30
2017-08-09T11:49:42.639Z,53.20
2017-08-09T11:52:10.098Z,51.10
2017-08-09T11:54:37.558Z,50.40
2017-08-09T11:57:06.017Z,44.50
2017-08-09T11:59:34.277Z,46.50
2017-08-09T12:02:01.743Z,46.50
2017-08-09T12:04:29.466Z,42.20
2017-08-09T12:06:57.734Z,42.30
2017-08-09T12:09:25.990Z,42.80
2017-08-09T12:11:54.350Z,42.70
2017-08-09T12:14:22.578Z,44.70
2017-08-09T12:16:50.063Z,44.20
2017-08-09T12:19:18.318Z,44.20
2017-08-09T12:21:46.567Z,45.10
2017-08-09T12:24:14.826Z,44.50
2017-08-09T12:26:43.074Z,43.50
2017-08-09T12:29:11.454Z,40.80
2017-08-09T12:31:39.706Z,39.10
2017-08-09T12:34:08.070Z,39.80
2017-08-09T12:36:36.294Z,39.20
2017-08-09T12:39:03.758Z,39.20
2017-08-09T12:41:31.318Z,39.40
2017-08-09T12:43:59.546Z,40.40
2017-08-09T12:46:27.051Z,40.40
2017-08-09T12:48:54.573Z,41.20
2017-08-09T12:51:22.802Z,39.50
2017-08-09T12:53:50.469Z,39.50
2017-08-09T12:56:18.698Z,42.30
2017-08-09T12:58:46.173Z,42.20
2017-08-09T13:01:14.431Z,41.00
2017-08-09T13:03:42.691Z,41.40
2017-08-09T13:06:10.918Z,38.70
2017-08-09T13:08:38.590Z,38.70
2017-08-09T13:11:06.858Z,37.80
2017-08-09T13:13:35.081Z,37.10
2017-08-09T13:16:02.562Z,37.10
2017-08-09T13:18:30.914Z,35.90
2017-08-09T13:20:58.377Z,35.90
2017-08-09T13:23:25.872Z,34.20
2017-08-09T13:25:53.401Z,31.50
2017-08-09T13:28:21.666Z,32.30
2017-08-09T13:30:50.130Z,32.50
2017-08-09T13:33:18.368Z,31.60
2017-08-09T13:35:45.839Z,31.60
2017-08-09T13:38:14.079Z,32.60
2017-08-09T13:40:41.538Z,32.60
2017-08-09T13:43:09.997Z,36.20
2017-08-09T13:45:38.253Z,39.40
2017-08-09T13:48:06.519Z,38.30
2017-08-09T13:50:34.874Z,37.30
2017-08-09T13:53:02.422Z,37.30
2017-08-09T13:55:30.646Z,35.20
2017-08-09T13:57:58.221Z,35.10
2017-08-09T14:00:26.447Z,30.40
2017-08-09T14:02:53.934Z,30.30
2017-08-09T14:05:22.394Z,29.10
2017-08-09T14:07:50.618Z,28.40
2017-08-09T14:10:18.083Z,28.30
2017-08-09T14:12:45.744Z,28.40
2017-08-09T14:15:13.974Z,30.50
2017-08-09T14:17:41.437Z,30.40
2017-08-09T14:20:09.905Z,29.80
2017-08-09T14:22:38.126Z,28.20
2017-08-09T14:25:05.607Z,28.10
2017-08-09T14:27:34.069Z,27.90
2017-08-09T14:30:02.291Z,26.90
2017-08-09T14:32:29.753Z,26.90
2017-08-09T14:34:57.519Z,27.20
2017-08-09T14:37:25.742Z,26.80
2017-08-09T14:39:53.201Z,26.70
2017-08-09T14:42:20.698Z,27.60
2017-08-09T14:44:48.259Z,28.80
2017-08-09T14:47:15.754Z,28.20
2017-08-09T14:49:44.214Z,28.10
2017-08-09T14:52:12.474Z,27.40
2017-08-09T14:54:40.697Z,27.60
2017-08-09T14:57:08.182Z,27.50
2017-08-09T14:59:36.443Z,27.60
2017-08-09T15:02:04.699Z,28.00
2017-08-09T15:04:33.162Z,27.40
2017-08-09T15:07:00.702Z,27.30
2017-08-09T15:09:28.921Z,26.60
2017-08-09T15:11:56.394Z,26.50
2017-08-09T15:14:23.854Z,25.70
2017-08-09T15:16:51.391Z,25.60
2017-08-09T15:19:19.649Z,24.50
2017-08-09T15:21:47.122Z,24.40
2017-08-09T15:24:14.578Z,24.20
2017-08-09T15:26:42.072Z,23.60
2017-08-09T15:29:09.529Z,24.50
2017-08-09T15:31:36.988Z,23.40
2017-08-09T15:34:04.534Z,22.70
2017-08-09T15:36:32.012Z,23.20
2017-08-09T15:38:59.514Z,22.80
2017-08-09T15:41:27.053Z,22.30
2017-08-09T15:43:54.522Z,22.40
2017-08-09T15:46:22.042Z,22.70
2017-08-09T15:48:49.680Z,22.00
2017-08-09T15:51:17.230Z,21.90
2017-08-09T15:53:44.696Z,23.50
2017-08-09T15:56:12.217Z,21.50
2017-08-09T15:58:40.469Z,19.50
2017-08-09T16:01:07.930Z,19.40
2017-08-09T16:03:35.460Z,20.40
2017-08-09T16:06:03.722Z,22.70
2017-08-09T16:08:31.941Z,23.30
2017-08-09T16:10:59.417Z,23.20
2017-08-09T16:13:27.682Z,24.90
2017-08-09T16:15:56.138Z,25.30
2017-08-09T16:18:24.374Z,26.00
2017-08-09T16:20:51.882Z,25.50
2017-08-09T16:23:20.126Z,27.30
2017-08-09T16:25:47.598Z,27.30
2017-08-09T16:28:15.073Z,28.90
2017-08-09T16:30:42.566Z,29.60
2017-08-09T16:33:10.026Z,29.30
2017-08-09T16:35:37.550Z,27.10
2017-08-09T16:38:05.774Z,26.70
2017-08-09T16:40:33.234Z,26.70
2017-08-09T16:43:00.720Z,26.80
2017-08-09T16:45:28.238Z,27.30
2017-08-09T16:47:56.499Z,25.30
2017-08-09T16:50:24.085Z,25.30
2017-08-09T16:52:52.346Z,23.70
2017-08-09T16:55:20.578Z,25.00
2017-08-09T16:57:48.351Z,25.00
2017-08-09T17:00:16.630Z,25.90
2017-08-09T17:02:44.122Z,25.90
2017-08-09T17:05:11.701Z,26.30
2017-08-09T17:07:40.502Z,26.60
2017-08-09T17:10:08.426Z,26.60
2017-08-09T17:12:36.885Z,25.30
2017-08-09T17:15:04.362Z,25.30
2017-08-09T17:17:32.048Z,24.80
2017-08-09T17:19:59.786Z,24.80
2017-08-09T17:22:27.251Z,24.50
2017-08-09T17:24:54.715Z,24.80
2017-08-09T17:27:22.202Z,25.40
2017-08-09T17:29:49.670Z,24.20
2017-08-09T17:32:17.130Z,25.10
2017-08-09T17:34:44.615Z,24.10
2017-08-09T17:37:12.878Z,25.20
2017-08-09T17:39:41.106Z,25.50
2017-08-09T17:42:08.677Z,25.40
2017-08-09T17:44:36.190Z,25.20
2017-08-09T17:47:04.426Z,24.70
2017-08-09T17:49:31.910Z,24.70
2017-08-09T17:52:01.479Z,25.10
2017-08-09T17:54:28.986Z,25.80
2017-08-09T17:56:57.238Z,29.20
2017-08-09T17:59:27.185Z,29.20
2017-08-09T18:01:54.665Z,28.70
2017-08-09T18:04:22.254Z,31.00
2017-08-09T18:06:49.710Z,32.20
2017-08-09T18:09:17.188Z,33.80
2017-08-09T18:11:45.647Z,37.20
2017-08-09T18:14:13.870Z,38.50
2017-08-09T18:16:41.326Z,38.40
2017-08-09T18:19:08.881Z,39.50
2017-08-09T18:21:36.451Z,41.30
2017-08-09T18:24:04.710Z,43.10
2017-08-09T18:26:33.170Z,44.90
2017-08-09T18:29:00.730Z,44.90
2017-08-09T18:31:28.260Z,45.70
2017-08-09T18:33:56.527Z,47.40
2017-08-09T18:36:24.002Z,47.30
2017-08-09T18:38:51.469Z,46.80
2017-08-09T18:41:19.398Z,47.80
2017-08-09T18:43:46.911Z,48.10
2017-08-09T18:46:15.142Z,48.60
2017-08-09T18:48:42.638Z,48.60
2017-08-09T18:51:10.097Z,48.40
2017-08-09T18:53:37.586Z,50.00
2017-08-09T18:56:05.852Z,52.40
2017-08-09T18:58:33.386Z,52.40
2017-08-09T19:01:01.015Z,53.10
2017-08-09T19:03:29.246Z,52.30
2017-08-09T19:05:56.703Z,52.20
2017-08-09T19:08:24.169Z,52.10
2017-08-09T19:10:51.702Z,52.30
2017-08-09T19:13:20.114Z,54.30
2017-08-09T19:15:47.611Z,54.20
2017-08-09T19:18:15.873Z,54.50
2017-08-09T19:20:43.345Z,54.50
2017-08-09T19:23:11.634Z,55.20
2017-08-09T19:25:39.090Z,54.70
2017-08-09T19:28:06.795Z,55.10
2017-08-09T19:30:35.058Z,55.70
2017-08-09T19:33:03.326Z,56.30
2017-08-09T19:35:31.590Z,56.50
2017-08-09T19:37:59.855Z,57.50
2017-08-09T19:40:28.089Z,58.80
2017-08-09T19:42:56.933Z,58.80
2017-08-09T19:45:24.527Z,58.60
2017-08-09T19:47:52.986Z,59.60
2017-08-09T19:50:21.518Z,59.30
2017-08-09T19:52:48.995Z,59.30
2017-08-09T19:55:17.454Z,59.90
2017-08-09T19:57:45.679Z,60.80
2017-08-09T20:00:13.146Z,60.40
2017-08-09T20:02:41.627Z,62.90
2017-08-09T20:05:09.862Z,62.10
2017-08-09T20:07:37.332Z,62.10
2017-08-09T20:10:05.794Z,63.00
2017-08-09T20:12:34.049Z,63.90
2017-08-09T20:15:02.287Z,64.70
2017-08-09T20:17:29.850Z,64.70
2017-08-09T20:19:58.224Z,66.10
2017-08-09T20:22:25.710Z,66.10
2017-08-09T20:24:53.410Z,66.70
2017-08-09T20:27:21.666Z,67.10
2017-08-09T20:29:49.926Z,67.60
2017-08-09T20:32:18.289Z,67.30
2017-08-09T20:34:46.522Z,67.80
2017-08-09T20:37:13.997Z,67.70
2017-08-09T20:39:42.458Z,68.70
2017-08-09T20:42:10.713Z,69.30
2017-08-09T20:44:38.974Z,68.90
2017-08-09T20:47:07.239Z,68.50
2017-08-09T20:49:35.503Z,68.40
2017-08-09T20:52:03.744Z,68.70
2017-08-09T20:54:31.516Z,68.70
2017-08-09T20:56:58.995Z,68.70
2017-08-09T20:59:26.499Z,68.70
2017-08-09T21:01:54.755Z,69.20
2017-08-09T21:04:23.009Z,69.50
2017-08-09T21:06:51.370Z,69.70
2017-08-09T21:09:19.607Z,70.10
2017-08-09T21:11:47.078Z,70.10
2017-08-09T21:14:15.335Z,71.10
2017-08-09T21:16:43.603Z,71.20
2017-08-09T21:19:11.830Z,71.10
2017-08-09T21:21:39.502Z,71.10
2017-08-09T21:24:07.730Z,71.40
2017-08-09T21:26:35.203Z,71.30
2017-08-09T21:29:03.470Z,72.60
2017-08-09T21:31:30.954Z,72.60
2017-08-09T21:33:58.507Z,73.00
2017-08-09T21:36:26.548Z,73.20
2017-08-09T21:38:54.014Z,73.40
2017-08-09T21:41:21.490Z,72.90
2017-08-09T21:43:49.737Z,73.60
2017-08-09T21:46:18.011Z,73.60
2017-08-09T21:48:46.244Z,73.60
2017-08-09T21:51:13.806Z,73.60
2017-08-09T21:53:42.070Z,74.00
2017-08-09T21:56:10.295Z,74.50
2017-08-09T21:58:37.772Z,74.30
2017-08-09T22:01:06.033Z,74.90
2017-08-09T22:03:34.499Z,75.40
2017-08-09T22:06:02.759Z,75.90
2017-08-09T22:08:31.002Z,76.90
2017-08-09T22:10:58.769Z,76.80
2017-08-09T22:13:27.034Z,78.20
2017-08-09T22:15:55.295Z,78.30
2017-08-09T22:18:22.947Z,78.30
2017-08-09T22:20:50.482Z,78.50
2017-08-09T22:23:18.742Z,78.50
2017-08-09T22:25:47.198Z,78.60
2017-08-09T22:28:15.458Z,79.00
2017-08-09T22:30:43.727Z,79.70
2017-08-09T22:33:11.989Z,80.40
2017-08-09T22:35:40.241Z,80.10
2017-08-09T22:38:08.502Z,80.00
2017-08-09T22:40:36.767Z,80.10
2017-08-09T22:43:05.032Z,79.90
2017-08-09T22:45:33.293Z,80.50
2017-08-09T22:48:01.027Z,80.40
2017-08-09T22:50:29.308Z,80.30
2017-08-09T22:52:57.759Z,80.20
2017-08-09T22:55:26.198Z,81.00
2017-08-09T22:57:53.659Z,81.00
2017-08-09T23:00:21.934Z,81.70
2017-08-09T23:02:49.465Z,81.70
2017-08-09T23:05:17.698Z,82.10
2017-08-09T23:07:45.170Z,82.10
2017-08-09T23:10:13.429Z,82.40
2017-08-09T23:12:41.685Z,82.10
2017-08-09T23:15:09.949Z,82.50
2017-08-09T23:17:38.410Z,82.80
2017-08-09T23:20:06.669Z,83.10
2017-08-09T23:22:34.902Z,83.00
2017-08-09T23:25:02.419Z,83.00
2017-08-09T23:27:29.894Z,82.80
2017-08-09T23:29:57.383Z,82.80
2017-08-09T23:32:25.134Z,83.20
2017-08-09T23:34:52.606Z,83.50
2017-08-09T23:37:20.099Z,83.60
2017-08-09T23:39:48.351Z,84.20
2017-08-09T23:42:16.585Z,84.50
2017-08-09T23:44:44.055Z,84.50
2017-08-09T23:47:12.421Z,84.30
2017-08-09T23:49:39.962Z,84.10
2017-08-09T23:52:08.222Z,84.30
2017-08-09T23:54:36.574Z,84.10
2017-08-09T23:57:04.819Z,84.50
2017-08-09T23:59:32.278Z,84.50
